sensor_id;sensor_type;location;lat;lon;timestamp;temperature;humidity
70928;SHT31;58587;53.034;18.576;2023-05-15T00:00:32;15.07;55.73
70928;SHT31;58587;53.034;18.576;2023-05-15T00:02:58;15.13;55.26
70928;SHT31;58587;53.034;18.576;2023-05-15T00:05:23;15.14;56.21
70928;SHT31;58587;53.034;18.576;2023-05-15T00:07:48;15.14;55.77
70928;SHT31;58587;53.034;18.576;2023-05-15T00:10:14;15.16;55.34
70928;SHT31;58587;53.034;18.576;2023-05-15T00:12:39;15.17;55.27
70928;SHT31;58587;53.034;18.576;2023-05-15T00:15:05;15.17;54.87
70928;SHT31;58587;53.034;18.576;2023-05-15T00:17:30;15.20;55.27
70928;SHT31;58587;53.034;18.576;2023-05-15T00:19:56;15.20;55.06
70928;SHT31;58587;53.034;18.576;2023-05-15T00:22:23;15.27;54.74
70928;SHT31;58587;53.034;18.576;2023-05-15T00:24:49;15.26;55.19
70928;SHT31;58587;53.034;18.576;2023-05-15T00:27:14;15.24;55.09
70928;SHT31;58587;53.034;18.576;2023-05-15T00:29:39;15.27;55.40
70928;SHT31;58587;53.034;18.576;2023-05-15T00:32:05;15.26;55.37
70928;SHT31;58587;53.034;18.576;2023-05-15T00:34:30;15.27;55.21
70928;SHT31;58587;53.034;18.576;2023-05-15T00:36:56;15.30;55.11
70928;SHT31;58587;53.034;18.576;2023-05-15T00:39:21;15.30;55.11
70928;SHT31;58587;53.034;18.576;2023-05-15T00:41:47;15.31;54.96
70928;SHT31;58587;53.034;18.576;2023-05-15T00:44:14;15.30;55.19
70928;SHT31;58587;53.034;18.576;2023-05-15T00:46:41;15.30;54.99
70928;SHT31;58587;53.034;18.576;2023-05-15T00:49:07;15.33;54.82
70928;SHT31;58587;53.034;18.576;2023-05-15T00:51:41;15.37;54.70
70928;SHT31;58587;53.034;18.576;2023-05-15T00:54:08;15.37;54.63
70928;SHT31;58587;53.034;18.576;2023-05-15T00:56:34;15.35;54.62
70928;SHT31;58587;53.034;18.576;2023-05-15T00:59:01;15.37;54.74
70928;SHT31;58587;53.034;18.576;2023-05-15T01:01:27;15.40;54.72
70928;SHT31;58587;53.034;18.576;2023-05-15T01:03:57;15.44;54.60
70928;SHT31;58587;53.034;18.576;2023-05-15T01:06:23;15.41;54.78
70928;SHT31;58587;53.034;18.576;2023-05-15T01:08:48;15.41;54.93
70928;SHT31;58587;53.034;18.576;2023-05-15T01:11:15;15.38;54.93
70928;SHT31;58587;53.034;18.576;2023-05-15T01:13:42;15.41;54.65
70928;SHT31;58587;53.034;18.576;2023-05-15T01:16:08;15.38;55.17
70928;SHT31;58587;53.034;18.576;2023-05-15T01:18:34;15.38;55.37
70928;SHT31;58587;53.034;18.576;2023-05-15T01:23:41;15.37;54.91
70928;SHT31;58587;53.034;18.576;2023-05-15T01:29:23;15.38;54.23
70928;SHT31;58587;53.034;18.576;2023-05-15T01:31:57;15.44;53.54
70928;SHT31;58587;53.034;18.576;2023-05-15T01:34:31;15.44;53.66
70928;SHT31;58587;53.034;18.576;2023-05-15T01:37:01;15.48;53.60
70928;SHT31;58587;53.034;18.576;2023-05-15T01:39:28;15.51;53.06
70928;SHT31;58587;53.034;18.576;2023-05-15T01:42:03;15.53;53.25
70928;SHT31;58587;53.034;18.576;2023-05-15T01:44:33;15.53;52.78
70928;SHT31;58587;53.034;18.576;2023-05-15T01:47:03;15.54;53.01
70928;SHT31;58587;53.034;18.576;2023-05-15T01:49:30;15.54;53.16
70928;SHT31;58587;53.034;18.576;2023-05-15T01:52:19;15.55;53.12
70928;SHT31;58587;53.034;18.576;2023-05-15T01:54:48;15.55;53.20
70928;SHT31;58587;53.034;18.576;2023-05-15T01:57:14;15.55;53.21
70928;SHT31;58587;53.034;18.576;2023-05-15T01:59:40;15.57;53.35
70928;SHT31;58587;53.034;18.576;2023-05-15T02:02:06;15.53;53.29
70928;SHT31;58587;53.034;18.576;2023-05-15T02:04:33;15.54;53.32
70928;SHT31;58587;53.034;18.576;2023-05-15T02:07:00;15.54;53.33
70928;SHT31;58587;53.034;18.576;2023-05-15T02:09:27;15.51;53.56
70928;SHT31;58587;53.034;18.576;2023-05-15T02:11:53;15.53;53.61
70928;SHT31;58587;53.034;18.576;2023-05-15T02:14:19;15.50;53.50
70928;SHT31;58587;53.034;18.576;2023-05-15T02:16:45;15.51;53.67
70928;SHT31;58587;53.034;18.576;2023-05-15T02:19:10;15.48;53.70
70928;SHT31;58587;53.034;18.576;2023-05-15T02:21:35;15.48;53.76
70928;SHT31;58587;53.034;18.576;2023-05-15T02:24:01;15.47;53.62
70928;SHT31;58587;53.034;18.576;2023-05-15T02:29:14;15.43;53.72
70928;SHT31;58587;53.034;18.576;2023-05-15T02:34:26;15.40;53.87
70928;SHT31;58587;53.034;18.576;2023-05-15T02:36:54;15.43;53.85
70928;SHT31;58587;53.034;18.576;2023-05-15T02:39:22;15.38;53.82
70928;SHT31;58587;53.034;18.576;2023-05-15T02:41:49;15.38;53.90
70928;SHT31;58587;53.034;18.576;2023-05-15T02:44:16;15.31;53.97
70928;SHT31;58587;53.034;18.576;2023-05-15T02:46:43;15.30;53.87
70928;SHT31;58587;53.034;18.576;2023-05-15T02:49:09;15.31;54.22
70928;SHT31;58587;53.034;18.576;2023-05-15T02:51:35;15.28;53.87
70928;SHT31;58587;53.034;18.576;2023-05-15T02:54:01;15.28;53.79
70928;SHT31;58587;53.034;18.576;2023-05-15T02:56:27;15.28;54.10
70928;SHT31;58587;53.034;18.576;2023-05-15T02:58:52;15.27;54.16
70928;SHT31;58587;53.034;18.576;2023-05-15T03:01:18;15.23;54.19
70928;SHT31;58587;53.034;18.576;2023-05-15T03:03:43;15.22;54.01
70928;SHT31;58587;53.034;18.576;2023-05-15T03:06:08;15.22;54.46
70928;SHT31;58587;53.034;18.576;2023-05-15T03:08:34;15.19;54.55
70928;SHT31;58587;53.034;18.576;2023-05-15T03:10:59;15.20;54.78
70928;SHT31;58587;53.034;18.576;2023-05-15T03:13:24;15.16;54.52
70928;SHT31;58587;53.034;18.576;2023-05-15T03:15:51;15.16;54.65
70928;SHT31;58587;53.034;18.576;2023-05-15T03:18:16;15.16;54.84
70928;SHT31;58587;53.034;18.576;2023-05-15T03:20:43;15.14;54.55
70928;SHT31;58587;53.034;18.576;2023-05-15T03:23:08;15.13;54.41
70928;SHT31;58587;53.034;18.576;2023-05-15T03:25:33;15.14;54.50
70928;SHT31;58587;53.034;18.576;2023-05-15T03:27:59;15.13;54.37
70928;SHT31;58587;53.034;18.576;2023-05-15T03:30:24;15.14;54.62
70928;SHT31;58587;53.034;18.576;2023-05-15T03:32:49;15.11;54.83
70928;SHT31;58587;53.034;18.576;2023-05-15T03:35:15;15.10;54.55
70928;SHT31;58587;53.034;18.576;2023-05-15T03:37:40;15.11;54.66
70928;SHT31;58587;53.034;18.576;2023-05-15T03:40:06;15.08;54.87
70928;SHT31;58587;53.034;18.576;2023-05-15T03:42:31;15.07;54.80
70928;SHT31;58587;53.034;18.576;2023-05-15T03:44:57;15.08;54.88
70928;SHT31;58587;53.034;18.576;2023-05-15T03:47:22;15.07;54.98
70928;SHT31;58587;53.034;18.576;2023-05-15T03:49:47;15.06;55.09
70928;SHT31;58587;53.034;18.576;2023-05-15T03:52:13;15.06;54.99
70928;SHT31;58587;53.034;18.576;2023-05-15T03:54:38;15.08;54.85
70928;SHT31;58587;53.034;18.576;2023-05-15T03:57:04;15.08;55.34
70928;SHT31;58587;53.034;18.576;2023-05-15T03:59:30;15.04;54.90
70928;SHT31;58587;53.034;18.576;2023-05-15T04:01:55;15.07;54.96
70928;SHT31;58587;53.034;18.576;2023-05-15T04:04:21;15.07;55.13
70928;SHT31;58587;53.034;18.576;2023-05-15T04:06:46;15.06;55.16
70928;SHT31;58587;53.034;18.576;2023-05-15T04:09:11;15.06;55.29
70928;SHT31;58587;53.034;18.576;2023-05-15T05:43:09;14.99;66.63
70928;SHT31;58587;53.034;18.576;2023-05-15T05:45:34;15.03;66.14
70928;SHT31;58587;53.034;18.576;2023-05-15T05:47:59;14.96;67.72
70928;SHT31;58587;53.034;18.576;2023-05-15T05:50:25;14.93;66.59
70928;SHT31;58587;53.034;18.576;2023-05-15T05:52:50;14.89;68.48
70928;SHT31;58587;53.034;18.576;2023-05-15T05:55:15;14.84;67.07
70928;SHT31;58587;53.034;18.576;2023-05-15T05:57:41;14.86;67.64
70928;SHT31;58587;53.034;18.576;2023-05-15T06:00:07;14.83;67.44
70928;SHT31;58587;53.034;18.576;2023-05-15T06:02:36;14.82;67.97
70928;SHT31;58587;53.034;18.576;2023-05-15T06:05:02;14.79;68.42
70928;SHT31;58587;53.034;18.576;2023-05-15T06:07:27;14.77;69.83
70928;SHT31;58587;53.034;18.576;2023-05-15T06:09:53;14.77;70.64
70928;SHT31;58587;53.034;18.576;2023-05-15T06:12:18;14.82;69.87
70928;SHT31;58587;53.034;18.576;2023-05-15T06:14:44;14.76;71.05
70928;SHT31;58587;53.034;18.576;2023-05-15T06:17:09;14.79;71.13
70928;SHT31;58587;53.034;18.576;2023-05-15T06:19:35;14.75;71.83
70928;SHT31;58587;53.034;18.576;2023-05-15T06:22:00;14.68;71.69
70928;SHT31;58587;53.034;18.576;2023-05-15T06:24:25;14.63;71.02
70928;SHT31;58587;53.034;18.576;2023-05-15T06:26:51;14.66;71.09
70928;SHT31;58587;53.034;18.576;2023-05-15T06:29:16;14.59;72.80
70928;SHT31;58587;53.034;18.576;2023-05-15T06:31:42;14.55;72.38
70928;SHT31;58587;53.034;18.576;2023-05-15T06:34:07;14.48;74.31
70928;SHT31;58587;53.034;18.576;2023-05-15T06:36:32;14.53;73.69
70928;SHT31;58587;53.034;18.576;2023-05-15T06:38:58;14.48;73.60
70928;SHT31;58587;53.034;18.576;2023-05-15T06:41:23;14.45;74.62
70928;SHT31;58587;53.034;18.576;2023-05-15T13:37:23;14.28;86.76
70928;SHT31;58587;53.034;18.576;2023-05-15T13:39:48;14.22;86.72
70928;SHT31;58587;53.034;18.576;2023-05-15T13:42:14;14.22;86.78
70928;SHT31;58587;53.034;18.576;2023-05-15T13:44:40;14.18;87.18
70928;SHT31;58587;53.034;18.576;2023-05-15T13:47:06;14.18;87.58
70928;SHT31;58587;53.034;18.576;2023-05-15T13:49:31;14.12;87.66
70928;SHT31;58587;53.034;18.576;2023-05-15T13:51:57;14.08;87.87
70928;SHT31;58587;53.034;18.576;2023-05-15T13:54:22;14.08;87.85
70928;SHT31;58587;53.034;18.576;2023-05-15T13:56:47;14.08;88.17
70928;SHT31;58587;53.034;18.576;2023-05-15T13:59:13;14.04;87.99
70928;SHT31;58587;53.034;18.576;2023-05-15T14:01:38;14.04;88.51
70928;SHT31;58587;53.034;18.576;2023-05-15T14:04:03;14.02;88.31
70928;SHT31;58587;53.034;18.576;2023-05-15T14:06:29;14.00;88.64
70928;SHT31;58587;53.034;18.576;2023-05-15T14:08:55;14.02;88.45
70928;SHT31;58587;53.034;18.576;2023-05-15T14:11:20;14.07;88.57
70928;SHT31;58587;53.034;18.576;2023-05-15T14:13:47;14.04;88.53
70928;SHT31;58587;53.034;18.576;2023-05-15T14:16:12;14.05;88.45
70928;SHT31;58587;53.034;18.576;2023-05-15T14:18:37;14.05;88.31
70928;SHT31;58587;53.034;18.576;2023-05-15T14:21:03;14.09;88.90
70928;SHT31;58587;53.034;18.576;2023-05-15T14:23:28;14.02;89.15
70928;SHT31;58587;53.034;18.576;2023-05-15T14:25:53;14.02;88.85
70928;SHT31;58587;53.034;18.576;2023-05-15T14:28:19;14.07;88.55
70928;SHT31;58587;53.034;18.576;2023-05-15T14:30:44;14.05;89.16
70928;SHT31;58587;53.034;18.576;2023-05-15T14:33:09;14.07;88.72
70928;SHT31;58587;53.034;18.576;2023-05-15T14:35:35;14.09;88.69
70928;SHT31;58587;53.034;18.576;2023-05-15T14:38:00;14.09;89.08
70928;SHT31;58587;53.034;18.576;2023-05-15T14:40:26;14.15;88.83
70928;SHT31;58587;53.034;18.576;2023-05-15T14:42:52;14.17;88.48
70928;SHT31;58587;53.034;18.576;2023-05-15T14:45:17;14.14;88.78
70928;SHT31;58587;53.034;18.576;2023-05-15T14:47:43;14.15;89.02
70928;SHT31;58587;53.034;18.576;2023-05-15T14:50:08;14.19;89.19
70928;SHT31;58587;53.034;18.576;2023-05-15T14:52:34;14.25;89.16
70928;SHT31;58587;53.034;18.576;2023-05-15T14:55:00;14.29;88.82
70928;SHT31;58587;53.034;18.576;2023-05-15T14:57:25;14.35;88.87
70928;SHT31;58587;53.034;18.576;2023-05-15T14:59:51;14.35;88.74
70928;SHT31;58587;53.034;18.576;2023-05-15T15:02:16;14.42;88.66
70928;SHT31;58587;53.034;18.576;2023-05-15T15:04:42;14.36;89.10
70928;SHT31;58587;53.034;18.576;2023-05-15T15:07:09;14.32;88.97
70928;SHT31;58587;53.034;18.576;2023-05-15T15:09:35;14.36;88.83
70928;SHT31;58587;53.034;18.576;2023-05-15T15:12:00;14.39;88.58
70928;SHT31;58587;53.034;18.576;2023-05-15T15:14:25;14.38;89.32
70928;SHT31;58587;53.034;18.576;2023-05-15T15:16:51;14.45;88.74
70928;SHT31;58587;53.034;18.576;2023-05-15T15:19:16;14.48;89.42
70928;SHT31;58587;53.034;18.576;2023-05-15T15:21:41;14.45;89.15
70928;SHT31;58587;53.034;18.576;2023-05-15T15:24:07;14.49;89.04
70928;SHT31;58587;53.034;18.576;2023-05-15T15:26:32;14.51;89.22
70928;SHT31;58587;53.034;18.576;2023-05-15T15:28:58;14.51;89.36
70928;SHT31;58587;53.034;18.576;2023-05-15T15:31:26;14.51;89.13
70928;SHT31;58587;53.034;18.576;2023-05-15T15:33:52;14.52;89.06
70928;SHT31;58587;53.034;18.576;2023-05-15T15:36:17;14.41;89.63
70928;SHT31;58587;53.034;18.576;2023-05-15T15:38:42;14.51;89.41
70928;SHT31;58587;53.034;18.576;2023-05-15T15:41:08;14.53;89.36
70928;SHT31;58587;53.034;18.576;2023-05-15T15:43:33;14.55;89.44
70928;SHT31;58587;53.034;18.576;2023-05-15T15:45:58;14.56;89.23
70928;SHT31;58587;53.034;18.576;2023-05-15T15:48:24;14.53;89.33
70928;SHT31;58587;53.034;18.576;2023-05-15T15:50:49;14.60;89.24
70928;SHT31;58587;53.034;18.576;2023-05-15T15:53:16;14.63;89.46
70928;SHT31;58587;53.034;18.576;2023-05-15T15:55:41;14.70;89.01
70928;SHT31;58587;53.034;18.576;2023-05-15T15:58:06;14.66;89.37
70928;SHT31;58587;53.034;18.576;2023-05-15T16:00:32;14.65;89.39
70928;SHT31;58587;53.034;18.576;2023-05-15T16:02:57;14.68;89.36
70928;SHT31;58587;53.034;18.576;2023-05-15T16:05:22;14.69;89.38
70928;SHT31;58587;53.034;18.576;2023-05-15T16:07:48;14.68;89.63
70928;SHT31;58587;53.034;18.576;2023-05-15T16:10:13;14.65;89.37
70928;SHT31;58587;53.034;18.576;2023-05-15T16:12:39;14.65;89.08
70928;SHT31;58587;53.034;18.576;2023-05-15T16:15:05;14.62;89.31
70928;SHT31;58587;53.034;18.576;2023-05-15T16:17:31;14.58;89.69
70928;SHT31;58587;53.034;18.576;2023-05-15T16:19:56;14.52;90.15
70928;SHT31;58587;53.034;18.576;2023-05-15T16:22:22;14.53;90.04
70928;SHT31;58587;53.034;18.576;2023-05-15T16:24:47;14.53;89.82
70928;SHT31;58587;53.034;18.576;2023-05-15T16:27:12;14.55;89.75
70928;SHT31;58587;53.034;18.576;2023-05-15T16:29:38;14.52;89.64
70928;SHT31;58587;53.034;18.576;2023-05-15T16:32:03;14.52;89.56
70928;SHT31;58587;53.034;18.576;2023-05-15T16:34:29;14.52;89.50
70928;SHT31;58587;53.034;18.576;2023-05-15T16:36:54;14.49;90.34
70928;SHT31;58587;53.034;18.576;2023-05-15T16:39:19;14.45;90.53
70928;SHT31;58587;53.034;18.576;2023-05-15T16:41:45;14.49;90.19
70928;SHT31;58587;53.034;18.576;2023-05-15T16:44:10;14.46;90.40
70928;SHT31;58587;53.034;18.576;2023-05-15T16:46:36;14.48;90.26
70928;SHT31;58587;53.034;18.576;2023-05-15T16:49:02;14.48;90.79
70928;SHT31;58587;53.034;18.576;2023-05-15T16:51:28;14.51;90.97
70928;SHT31;58587;53.034;18.576;2023-05-15T16:53:53;14.56;90.77
70928;SHT31;58587;53.034;18.576;2023-05-15T16:56:20;14.60;90.89
70928;SHT31;58587;53.034;18.576;2023-05-15T16:58:46;14.66;90.87
70928;SHT31;58587;53.034;18.576;2023-05-15T17:01:11;14.72;90.68
70928;SHT31;58587;53.034;18.576;2023-05-15T17:03:36;14.75;90.52
70928;SHT31;58587;53.034;18.576;2023-05-15T17:06:02;14.77;90.70
70928;SHT31;58587;53.034;18.576;2023-05-15T17:08:27;14.80;90.77
70928;SHT31;58587;53.034;18.576;2023-05-15T17:10:53;14.83;90.48
70928;SHT31;58587;53.034;18.576;2023-05-15T17:13:18;14.82;90.09
70928;SHT31;58587;53.034;18.576;2023-05-15T17:15:43;14.89;90.66
70928;SHT31;58587;53.034;18.576;2023-05-15T17:18:11;14.96;90.16
70928;SHT31;58587;53.034;18.576;2023-05-15T17:20:36;15.00;89.94
70928;SHT31;58587;53.034;18.576;2023-05-15T17:23:01;14.99;90.13
70928;SHT31;58587;53.034;18.576;2023-05-15T17:25:27;14.86;89.78
70928;SHT31;58587;53.034;18.576;2023-05-15T17:27:52;14.84;90.26
70928;SHT31;58587;53.034;18.576;2023-05-15T17:30:17;14.76;90.74
70928;SHT31;58587;53.034;18.576;2023-05-15T17:32:43;14.82;90.48
70928;SHT31;58587;53.034;18.576;2023-05-15T17:35:08;14.79;90.73
70928;SHT31;58587;53.034;18.576;2023-05-15T17:37:34;14.79;90.56
70928;SHT31;58587;53.034;18.576;2023-05-15T17:39:59;14.75;91.04
70928;SHT31;58587;53.034;18.576;2023-05-15T17:42:25;14.82;90.56
70928;SHT31;58587;53.034;18.576;2023-05-15T17:44:52;14.84;90.68
70928;SHT31;58587;53.034;18.576;2023-05-15T17:47:18;14.82;90.79
70928;SHT31;58587;53.034;18.576;2023-05-15T17:49:43;14.80;90.86
70928;SHT31;58587;53.034;18.576;2023-05-15T17:52:09;14.77;90.67
70928;SHT31;58587;53.034;18.576;2023-05-15T17:54:34;14.76;90.55
70928;SHT31;58587;53.034;18.576;2023-05-15T17:56:59;14.76;90.58
70928;SHT31;58587;53.034;18.576;2023-05-15T17:59:25;14.69;90.87
70928;SHT31;58587;53.034;18.576;2023-05-15T18:01:50;14.69;90.69
70928;SHT31;58587;53.034;18.576;2023-05-15T18:04:16;14.62;90.89
70928;SHT31;58587;53.034;18.576;2023-05-15T18:06:41;14.55;90.94
70928;SHT31;58587;53.034;18.576;2023-05-15T18:09:06;14.53;90.66
70928;SHT31;58587;53.034;18.576;2023-05-15T18:11:32;14.49;90.57
70928;SHT31;58587;53.034;18.576;2023-05-15T18:13:57;14.45;90.64
70928;SHT31;58587;53.034;18.576;2023-05-15T18:16:23;14.39;90.72
70928;SHT31;58587;53.034;18.576;2023-05-15T18:18:48;14.36;90.78
70928;SHT31;58587;53.034;18.576;2023-05-15T18:21:16;14.32;90.58
70928;SHT31;58587;53.034;18.576;2023-05-15T18:23:41;14.26;90.64
70928;SHT31;58587;53.034;18.576;2023-05-15T18:26:06;14.22;90.69
70928;SHT31;58587;53.034;18.576;2023-05-15T18:28:32;14.18;90.75
70928;SHT31;58587;53.034;18.576;2023-05-15T18:30:57;14.12;90.90
70928;SHT31;58587;53.034;18.576;2023-05-15T18:33:23;14.11;91.11
70928;SHT31;58587;53.034;18.576;2023-05-15T18:35:48;14.05;91.19
70928;SHT31;58587;53.034;18.576;2023-05-15T18:38:13;14.01;91.28
70928;SHT31;58587;53.034;18.576;2023-05-15T18:40:38;14.01;91.45
70928;SHT31;58587;53.034;18.576;2023-05-15T18:43:04;14.00;91.61
70928;SHT31;58587;53.034;18.576;2023-05-15T18:45:30;14.01;91.32
70928;SHT31;58587;53.034;18.576;2023-05-15T18:47:55;14.01;91.40
70928;SHT31;58587;53.034;18.576;2023-05-15T18:50:21;14.00;91.47
70928;SHT31;58587;53.034;18.576;2023-05-15T18:52:49;13.95;91.37
70928;SHT31;58587;53.034;18.576;2023-05-15T18:55:14;13.97;91.39
70928;SHT31;58587;53.034;18.576;2023-05-15T18:57:39;13.89;91.41
70928;SHT31;58587;53.034;18.576;2023-05-15T19:00:05;13.87;91.52
70928;SHT31;58587;53.034;18.576;2023-05-15T19:02:31;13.84;91.18
70928;SHT31;58587;53.034;18.576;2023-05-15T19:04:58;13.79;91.39
70928;SHT31;58587;53.034;18.576;2023-05-15T19:07:23;13.79;91.57
70928;SHT31;58587;53.034;18.576;2023-05-15T19:09:48;13.79;91.82
70928;SHT31;58587;53.034;18.576;2023-05-15T19:12:14;13.81;91.76
70928;SHT31;58587;53.034;18.576;2023-05-15T19:14:39;13.79;91.67
70928;SHT31;58587;53.034;18.576;2023-05-15T19:17:04;13.78;92.19
70928;SHT31;58587;53.034;18.576;2023-05-15T19:19:30;13.79;92.03
70928;SHT31;58587;53.034;18.576;2023-05-15T19:21:55;13.79;92.13
70928;SHT31;58587;53.034;18.576;2023-05-15T19:24:21;13.82;92.15
70928;SHT31;58587;53.034;18.576;2023-05-15T19:26:46;13.78;92.31
70928;SHT31;58587;53.034;18.576;2023-05-15T19:29:12;13.75;92.45
70928;SHT31;58587;53.034;18.576;2023-05-15T19:31:37;13.77;92.39
70928;SHT31;58587;53.034;18.576;2023-05-15T19:34:03;13.78;92.33
70928;SHT31;58587;53.034;18.576;2023-05-15T19:36:28;13.77;92.38
70928;SHT31;58587;53.034;18.576;2023-05-15T19:38:55;13.81;92.39
70928;SHT31;58587;53.034;18.576;2023-05-15T19:41:20;13.77;92.49
70928;SHT31;58587;53.034;18.576;2023-05-15T19:43:46;13.78;92.29
70928;SHT31;58587;53.034;18.576;2023-05-15T19:46:14;13.73;92.39
70928;SHT31;58587;53.034;18.576;2023-05-15T19:48:41;13.71;92.57
70928;SHT31;58587;53.034;18.576;2023-05-15T19:51:06;13.73;92.59
70928;SHT31;58587;53.034;18.576;2023-05-15T19:53:32;13.71;92.55
70928;SHT31;58587;53.034;18.576;2023-05-15T19:55:57;13.66;92.58
70928;SHT31;58587;53.034;18.576;2023-05-15T19:58:22;13.64;92.79
70928;SHT31;58587;53.034;18.576;2023-05-15T20:00:48;13.66;92.90
70928;SHT31;58587;53.034;18.576;2023-05-15T20:03:14;13.66;92.87
70928;SHT31;58587;53.034;18.576;2023-05-15T20:05:39;13.66;92.73
70928;SHT31;58587;53.034;18.576;2023-05-15T20:08:05;13.61;92.73
70928;SHT31;58587;53.034;18.576;2023-05-15T20:10:30;13.67;92.57
70928;SHT31;58587;53.034;18.576;2023-05-15T20:12:56;13.66;92.54
70928;SHT31;58587;53.034;18.576;2023-05-15T20:15:21;13.54;93.23
70928;SHT31;58587;53.034;18.576;2023-05-15T20:17:46;13.60;92.96
70928;SHT31;58587;53.034;18.576;2023-05-15T20:20:12;13.61;92.59
70928;SHT31;58587;53.034;18.576;2023-05-15T20:22:39;13.58;92.49
70928;SHT31;58587;53.034;18.576;2023-05-15T20:25:05;13.56;92.75
70928;SHT31;58587;53.034;18.576;2023-05-15T20:27:30;13.50;92.76
70928;SHT31;58587;53.034;18.576;2023-05-15T20:29:56;13.50;92.86
70928;SHT31;58587;53.034;18.576;2023-05-15T20:32:21;13.47;92.56
70928;SHT31;58587;53.034;18.576;2023-05-15T20:34:47;13.47;92.89
70928;SHT31;58587;53.034;18.576;2023-05-15T20:37:12;13.46;92.86
70928;SHT31;58587;53.034;18.576;2023-05-15T20:39:38;13.42;92.62
70928;SHT31;58587;53.034;18.576;2023-05-15T20:42:04;13.37;92.93
70928;SHT31;58587;53.034;18.576;2023-05-15T20:44:29;13.35;92.59
70928;SHT31;58587;53.034;18.576;2023-05-15T20:46:55;13.36;92.64
70928;SHT31;58587;53.034;18.576;2023-05-15T20:49:20;13.32;92.74
70928;SHT31;58587;53.034;18.576;2023-05-15T20:51:46;13.35;92.73
70928;SHT31;58587;53.034;18.576;2023-05-15T20:54:15;13.28;92.92
70928;SHT31;58587;53.034;18.576;2023-05-15T20:56:41;13.27;93.13
70928;SHT31;58587;53.034;18.576;2023-05-15T20:59:06;13.26;93.27
70928;SHT31;58587;53.034;18.576;2023-05-15T21:01:31;13.23;93.19
70928;SHT31;58587;53.034;18.576;2023-05-15T21:03:57;13.28;93.13
70928;SHT31;58587;53.034;18.576;2023-05-15T21:06:22;13.26;93.03
70928;SHT31;58587;53.034;18.576;2023-05-15T21:08:48;13.30;93.12
70928;SHT31;58587;53.034;18.576;2023-05-15T21:11:13;13.24;92.96
70928;SHT31;58587;53.034;18.576;2023-05-15T21:13:38;13.27;92.86
70928;SHT31;58587;53.034;18.576;2023-05-15T21:16:04;13.27;92.84
70928;SHT31;58587;53.034;18.576;2023-05-15T21:18:29;13.20;92.73
70928;SHT31;58587;53.034;18.576;2023-05-15T21:20:55;13.20;92.84
70928;SHT31;58587;53.034;18.576;2023-05-15T21:23:20;13.20;92.54
70928;SHT31;58587;53.034;18.576;2023-05-15T21:25:46;13.15;92.66
70928;SHT31;58587;53.034;18.576;2023-05-15T21:28:11;13.12;92.79
70928;SHT31;58587;53.034;18.576;2023-05-15T21:30:36;13.09;93.05
70928;SHT31;58587;53.034;18.576;2023-05-15T21:33:02;13.06;92.91
70928;SHT31;58587;53.034;18.576;2023-05-15T21:35:27;13.10;93.04
70928;SHT31;58587;53.034;18.576;2023-05-15T21:37:54;13.06;92.96
70928;SHT31;58587;53.034;18.576;2023-05-15T21:40:20;13.05;93.39
70928;SHT31;58587;53.034;18.576;2023-05-15T21:42:45;12.96;93.67
70928;SHT31;58587;53.034;18.576;2023-05-15T21:45:10;12.96;93.41
70928;SHT31;58587;53.034;18.576;2023-05-15T21:47:36;12.99;93.44
70928;SHT31;58587;53.034;18.576;2023-05-15T21:50:01;13.00;93.42
70928;SHT31;58587;53.034;18.576;2023-05-15T21:52:26;12.95;93.05
70928;SHT31;58587;53.034;18.576;2023-05-15T21:54:52;12.93;93.19
70928;SHT31;58587;53.034;18.576;2023-05-15T21:57:17;12.97;92.81
70928;SHT31;58587;53.034;18.576;2023-05-15T21:59:42;12.89;93.04
70928;SHT31;58587;53.034;18.576;2023-05-15T22:02:08;12.92;92.59
70928;SHT31;58587;53.034;18.576;2023-05-15T22:04:33;12.93;92.48
70928;SHT31;58587;53.034;18.576;2023-05-15T22:06:58;12.91;93.01
70928;SHT31;58587;53.034;18.576;2023-05-15T22:09:24;12.88;92.81
70928;SHT31;58587;53.034;18.576;2023-05-15T22:11:50;12.86;92.85
70928;SHT31;58587;53.034;18.576;2023-05-15T22:14:15;12.82;92.93
70928;SHT31;58587;53.034;18.576;2023-05-15T22:16:41;12.81;92.52
70928;SHT31;58587;53.034;18.576;2023-05-15T22:19:06;12.79;92.83
70928;SHT31;58587;53.034;18.576;2023-05-15T22:21:32;12.76;92.86
70928;SHT31;58587;53.034;18.576;2023-05-15T22:23:57;12.76;92.87
70928;SHT31;58587;53.034;18.576;2023-05-15T22:26:22;12.76;92.86
70928;SHT31;58587;53.034;18.576;2023-05-15T22:28:53;12.75;92.78
70928;SHT31;58587;53.034;18.576;2023-05-15T22:31:19;12.72;92.64
70928;SHT31;58587;53.034;18.576;2023-05-15T22:33:45;12.75;92.85
70928;SHT31;58587;53.034;18.576;2023-05-15T22:36:11;12.76;92.64
70928;SHT31;58587;53.034;18.576;2023-05-15T22:38:36;12.72;92.71
70928;SHT31;58587;53.034;18.576;2023-05-15T22:41:01;12.69;92.62
70928;SHT31;58587;53.034;18.576;2023-05-15T22:43:27;12.66;93.07
70928;SHT31;58587;53.034;18.576;2023-05-15T22:45:52;12.62;92.95
70928;SHT31;58587;53.034;18.576;2023-05-15T22:48:17;12.65;93.26
70928;SHT31;58587;53.034;18.576;2023-05-15T22:50:43;12.65;93.04
70928;SHT31;58587;53.034;18.576;2023-05-15T22:53:08;12.68;93.00
70928;SHT31;58587;53.034;18.576;2023-05-15T22:55:34;12.71;92.95
70928;SHT31;58587;53.034;18.576;2023-05-15T22:57:59;12.65;92.95
70928;SHT31;58587;53.034;18.576;2023-05-15T23:00:24;12.65;92.93
70928;SHT31;58587;53.034;18.576;2023-05-15T23:02:49;12.71;92.97
70928;SHT31;58587;53.034;18.576;2023-05-15T23:05:19;12.69;92.80
70928;SHT31;58587;53.034;18.576;2023-05-15T23:07:44;12.63;92.99
70928;SHT31;58587;53.034;18.576;2023-05-15T23:10:10;12.68;92.88
70928;SHT31;58587;53.034;18.576;2023-05-15T23:12:35;12.69;93.02
70928;SHT31;58587;53.034;18.576;2023-05-15T23:15:01;12.66;93.01
70928;SHT31;58587;53.034;18.576;2023-05-15T23:17:26;12.62;93.16
70928;SHT31;58587;53.034;18.576;2023-05-15T23:19:51;12.58;93.27
70928;SHT31;58587;53.034;18.576;2023-05-15T23:22:17;12.59;93.00
70928;SHT31;58587;53.034;18.576;2023-05-15T23:24:42;12.55;92.97
70928;SHT31;58587;53.034;18.576;2023-05-15T23:27:07;12.62;92.79
70928;SHT31;58587;53.034;18.576;2023-05-15T23:29:33;12.61;92.75
70928;SHT31;58587;53.034;18.576;2023-05-15T23:31:58;12.55;92.82
70928;SHT31;58587;53.034;18.576;2023-05-15T23:34:23;12.56;93.08
70928;SHT31;58587;53.034;18.576;2023-05-15T23:36:49;12.56;93.27
70928;SHT31;58587;53.034;18.576;2023-05-15T23:39:14;12.56;92.87
70928;SHT31;58587;53.034;18.576;2023-05-15T23:41:40;12.56;92.73